createdAt,value
2023-01-02T00:00:40.822Z,97705.50
2023-01-02T00:03:07.929Z,97701.28
2023-01-02T00:05:36.641Z,97687.28
2023-01-02T00:08:03.702Z,97680.56
2023-01-02T00:10:30.695Z,97692.28
2023-01-02T00:12:57.715Z,97672.31
2023-01-02T00:15:24.838Z,97667.53
2023-01-02T00:17:51.859Z,97650.72
2023-01-02T00:20:18.923Z,97645.59
2023-01-02T00:22:46.157Z,97647.16
2023-01-02T00:25:13.234Z,97641.66
2023-01-02T00:27:40.289Z,97630.53
2023-01-02T00:30:08.253Z,97614.16
2023-01-02T00:32:35.249Z,97623.94
2023-01-02T00:35:02.260Z,97640.22
2023-01-02T00:37:29.230Z,97638.81
2023-01-02T00:39:56.320Z,97647.41
2023-01-02T00:42:23.568Z,97659.09
2023-01-02T00:44:50.556Z,97650.34
2023-01-02T00:47:17.519Z,97633.19
2023-01-02T00:49:50.529Z,97636.16
2023-01-02T00:52:17.529Z,97644.03
2023-01-02T00:54:44.599Z,97660.47
2023-01-02T00:57:11.588Z,97644.34
2023-01-02T00:59:42.745Z,97646.22
2023-01-02T01:02:09.871Z,97643.94
2023-01-02T01:04:37.386Z,97649.56
2023-01-02T01:07:04.867Z,97639.09
2023-01-02T01:09:31.967Z,97637.28
2023-01-02T01:12:02.245Z,97657.16
2023-01-02T01:14:31.662Z,97653.34
2023-01-02T01:16:59.861Z,97647.97
2023-01-02T01:19:34.293Z,97652.78
2023-01-02T01:22:01.490Z,97652.00
2023-01-02T01:24:28.493Z,97643.59
2023-01-02T01:26:55.606Z,97632.97
2023-01-02T01:29:23.138Z,97645.56
2023-01-02T01:31:50.273Z,97645.00
2023-01-02T01:34:17.621Z,97628.59
2023-01-02T01:36:44.754Z,97649.56
2023-01-02T01:39:12.199Z,97655.00
2023-01-02T01:41:39.436Z,97632.19
2023-01-02T01:44:45.063Z,97648.22
2023-01-02T01:47:54.257Z,97626.06
2023-01-02T01:50:36.133Z,97637.41
2023-01-02T01:53:09.012Z,97645.22
2023-01-02T01:55:47.410Z,97657.16
2023-01-02T01:58:19.003Z,97657.91
2023-01-02T02:00:46.310Z,97651.50
2023-01-02T02:03:17.607Z,97650.25
2023-01-02T02:05:46.225Z,97661.66
2023-01-02T02:08:20.465Z,97646.13
2023-01-02T02:10:48.806Z,97667.44
2023-01-02T02:13:16.344Z,97661.75
2023-01-02T02:16:08.106Z,97662.03
2023-01-02T02:19:08.759Z,97663.97
2023-01-02T02:22:16.978Z,97675.91
2023-01-02T02:25:08.865Z,97677.56
2023-01-02T02:28:27.751Z,97668.72
2023-01-02T02:31:18.675Z,97650.03
2023-01-02T02:34:09.526Z,97650.31
2023-01-02T02:36:57.964Z,97647.69
2023-01-02T02:39:37.221Z,97628.28
2023-01-02T02:42:10.739Z,97638.41
2023-01-02T02:44:54.616Z,97626.63
2023-01-02T02:48:08.759Z,97616.53
2023-01-02T02:51:06.179Z,97628.78
2023-01-02T02:53:41.163Z,97627.25
2023-01-02T02:56:11.275Z,97627.09
2023-01-02T02:58:40.692Z,97644.47
2023-01-02T03:01:14.573Z,97641.91
2023-01-02T03:03:41.539Z,97638.28
2023-01-02T03:06:15.844Z,97645.09
2023-01-02T03:08:58.673Z,97665.47
2023-01-02T03:11:49.663Z,97659.03
2023-01-02T03:14:28.818Z,97668.31
2023-01-02T03:17:07.187Z,97658.38
2023-01-02T03:19:50.384Z,97652.88
2023-01-02T03:22:20.622Z,97651.69
2023-01-02T03:24:51.749Z,97668.38
2023-01-02T03:27:23.257Z,97665.19
2023-01-02T03:30:03.206Z,97661.38
2023-01-02T03:32:44.050Z,97659.69
2023-01-02T03:35:15.688Z,97659.56
2023-01-02T03:37:49.038Z,97663.72
2023-01-02T03:40:26.066Z,97650.00
2023-01-02T03:43:00.324Z,97668.28
2023-01-02T03:45:36.547Z,97673.81
2023-01-02T03:48:35.903Z,97677.34
2023-01-02T03:51:06.992Z,97669.84
2023-01-02T03:53:36.978Z,97659.75
2023-01-02T03:56:23.602Z,97657.66
2023-01-02T03:59:14.294Z,97682.56
2023-01-02T04:01:49.828Z,97665.34
2023-01-02T04:04:28.048Z,97661.63
2023-01-02T04:07:00.320Z,97662.28
2023-01-02T04:09:30.856Z,97657.84
2023-01-02T04:12:04.240Z,97677.47
2023-01-02T04:14:50.908Z,97676.72
2023-01-02T04:17:21.123Z,97666.47
2023-01-02T04:19:53.116Z,97674.28
2023-01-02T04:22:41.549Z,97677.03
2023-01-02T04:25:13.951Z,97676.63
2023-01-02T04:28:18.239Z,97682.09
2023-01-02T04:30:54.543Z,97687.94
2023-01-02T04:33:24.185Z,97684.28
2023-01-02T04:35:51.449Z,97689.94
2023-01-02T04:38:19.911Z,97693.16
2023-01-02T04:40:47.032Z,97712.19
2023-01-02T04:43:19.784Z,97703.00
2023-01-02T04:45:51.600Z,97691.03
2023-01-02T04:48:18.909Z,97688.44
2023-01-02T04:50:46.150Z,97695.50
2023-01-02T04:53:15.761Z,97692.28
2023-01-02T04:55:42.894Z,97697.34
2023-01-02T04:58:09.886Z,97705.16
2023-01-02T05:00:37.231Z,97702.72
2023-01-02T05:03:05.600Z,97708.81
2023-01-02T05:05:33.120Z,97704.41
2023-01-02T05:08:00.292Z,97705.94
2023-01-02T05:10:27.337Z,97692.91
2023-01-02T05:12:54.359Z,97706.69
2023-01-02T05:15:21.702Z,97714.81
2023-01-02T05:17:51.818Z,97697.66
2023-01-02T05:20:19.079Z,97711.16
2023-01-02T05:23:04.685Z,97719.88
2023-01-02T05:25:34.169Z,97731.13
2023-01-02T05:28:04.616Z,97732.63
2023-01-02T05:30:31.736Z,97733.53
2023-01-02T05:32:58.765Z,97746.13
2023-01-02T05:35:31.895Z,97761.47
2023-01-02T05:37:59.903Z,97741.38
2023-01-02T05:40:26.881Z,97730.53
2023-01-02T05:42:54.125Z,97731.41
2023-01-02T05:45:21.277Z,97746.91
2023-01-02T05:47:48.375Z,97750.28
2023-01-02T05:50:15.524Z,97728.06
2023-01-02T05:52:45.868Z,97719.63
2023-01-02T05:55:13.553Z,97731.44
2023-01-02T05:57:42.088Z,97742.94
2023-01-02T06:00:09.905Z,97752.00
2023-01-02T06:02:47.758Z,97759.84
2023-01-02T06:05:15.790Z,97766.53
2023-01-02T06:07:42.908Z,97750.88
2023-01-02T06:10:10.061Z,97744.63
2023-01-02T06:12:37.208Z,97754.13
2023-01-02T06:15:04.679Z,97753.38
2023-01-02T06:17:31.621Z,97770.25
2023-01-02T06:19:59.913Z,97783.44
2023-01-02T06:22:26.945Z,97773.16
2023-01-02T06:24:53.969Z,97764.56
2023-01-02T06:27:21.032Z,97790.94
2023-01-02T06:29:47.984Z,97804.13
2023-01-02T06:32:15.083Z,97805.69
2023-01-02T06:34:45.277Z,97815.63
2023-01-02T06:37:12.307Z,97809.03
2023-01-02T06:39:39.585Z,97812.72
2023-01-02T06:42:06.675Z,97819.97
2023-01-02T06:44:33.694Z,97810.28
2023-01-02T06:47:00.871Z,97810.13
2023-01-02T06:49:28.057Z,97816.41
2023-01-02T06:51:55.213Z,97810.78
2023-01-02T06:54:22.426Z,97800.47
2023-01-02T06:56:50.848Z,97801.09
2023-01-02T06:59:18.012Z,97798.19
2023-01-02T07:01:45.174Z,97767.66
2023-01-02T07:04:16.332Z,97791.72
2023-01-02T07:06:43.790Z,97782.22
2023-01-02T07:09:10.859Z,97768.72
2023-01-02T07:11:39.108Z,97781.59
2023-01-02T07:14:06.410Z,97790.66
2023-01-02T07:16:33.841Z,97783.31
2023-01-02T07:19:01.207Z,97791.28
2023-01-02T07:21:28.228Z,97791.44
2023-01-02T07:23:55.334Z,97793.09
2023-01-02T07:26:22.435Z,97800.94
2023-01-02T07:28:49.449Z,97797.41
2023-01-02T07:31:21.413Z,97784.22
2023-01-02T07:33:50.315Z,97799.88
2023-01-02T07:36:19.859Z,97800.16
2023-01-02T07:38:51.800Z,97802.78
2023-01-02T07:41:23.571Z,97795.13
2023-01-02T07:43:51.722Z,97813.97
2023-01-02T07:46:20.492Z,97811.66
2023-01-02T07:48:48.490Z,97818.41
2023-01-02T07:51:19.680Z,97847.44
2023-01-02T07:53:49.833Z,97849.13
2023-01-02T07:56:16.823Z,97858.16
2023-01-02T07:58:43.895Z,97845.31
2023-01-02T08:01:13.413Z,97859.13
2023-01-02T08:03:41.517Z,97850.81
2023-01-02T08:06:14.357Z,97864.50
2023-01-02T08:08:42.154Z,97849.72
2023-01-02T08:11:18.212Z,97849.91
2023-01-02T08:13:45.726Z,97844.22
2023-01-02T08:16:15.775Z,97828.44
2023-01-02T08:18:43.593Z,97829.50
2023-01-02T08:21:11.760Z,97826.44
2023-01-02T08:23:39.180Z,97836.38
2023-01-02T08:26:08.929Z,97831.19
2023-01-02T08:28:37.419Z,97827.50
2023-01-02T08:31:22.811Z,97845.44
2023-01-02T08:33:50.223Z,97850.94
2023-01-02T08:36:18.851Z,97878.00
2023-01-02T08:38:46.196Z,97882.28
2023-01-02T08:41:31.578Z,97894.09
2023-01-02T08:44:00.381Z,97880.13
2023-01-02T08:46:27.878Z,97883.34
2023-01-02T08:48:57.141Z,97901.78
2023-01-02T08:51:25.940Z,97915.75
2023-01-02T08:53:53.937Z,97922.34
2023-01-02T08:56:26.934Z,97923.88
2023-01-02T08:58:59.321Z,97929.69
2023-01-02T09:01:28.412Z,97927.56
2023-01-02T09:03:56.853Z,97934.91
2023-01-02T09:06:26.471Z,97937.25
2023-01-02T09:08:57.009Z,97942.59
2023-01-02T09:11:30.505Z,97936.28
2023-01-02T09:13:59.590Z,97945.50
2023-01-02T09:16:27.459Z,97950.59
2023-01-02T09:18:57.566Z,97932.91
2023-01-02T09:21:24.626Z,97930.78
2023-01-02T09:23:52.022Z,97925.06
2023-01-02T09:26:19.757Z,97920.34
2023-01-02T09:28:46.994Z,97936.94
2023-01-02T09:31:16.182Z,97954.94
2023-01-02T09:33:45.166Z,97952.59
2023-01-02T09:36:15.663Z,97928.50
2023-01-02T09:38:43.355Z,97934.31
2023-01-02T09:41:22.458Z,97957.66
2023-01-02T09:43:58.699Z,97952.00
2023-01-02T09:46:46.250Z,97950.31
2023-01-02T09:49:18.652Z,97959.34
2023-01-02T09:51:45.995Z,97944.75
2023-01-02T09:54:29.124Z,97909.75
2023-01-02T09:57:17.172Z,97935.56
2023-01-02T09:59:56.527Z,97925.72
2023-01-02T10:02:36.204Z,97908.38
2023-01-02T10:05:15.523Z,97911.78
2023-01-02T10:07:57.223Z,97905.94
2023-01-02T10:10:34.446Z,97889.03
2023-01-02T10:13:17.213Z,97880.13
2023-01-02T10:15:50.812Z,97887.47
2023-01-02T10:18:32.205Z,97872.00
2023-01-02T10:21:05.203Z,97841.59
2023-01-02T10:23:56.411Z,97820.56
2023-01-02T10:26:31.548Z,97821.47
2023-01-02T10:29:19.529Z,97815.34
2023-01-02T10:32:01.059Z,97781.84
2023-01-02T10:34:42.708Z,97803.66
2023-01-02T10:37:15.431Z,97804.25
2023-01-02T10:39:44.977Z,97803.50
2023-01-02T10:42:14.900Z,97790.75
2023-01-02T10:44:44.571Z,97788.47
2023-01-02T10:47:21.289Z,97790.44
2023-01-02T10:49:49.674Z,97783.06
2023-01-02T10:52:33.210Z,97765.59
2023-01-02T10:55:01.378Z,97778.94
2023-01-02T10:57:44.583Z,97788.28
2023-01-02T11:00:34.680Z,97779.06
2023-01-02T11:03:17.863Z,97782.28
2023-01-02T11:05:51.059Z,97754.41
2023-01-02T11:08:22.289Z,97752.41
2023-01-02T11:10:51.065Z,97789.69
2023-01-02T11:13:20.865Z,97771.09
2023-01-02T11:15:58.942Z,97759.63
2023-01-02T11:18:29.993Z,97759.94
2023-01-02T11:21:04.546Z,97764.69
2023-01-02T11:23:36.563Z,97746.91
2023-01-02T11:26:05.336Z,97739.69
2023-01-02T11:28:35.028Z,97716.38
2023-01-02T11:31:05.474Z,97683.88
2023-01-02T11:33:35.387Z,97645.06
2023-01-02T11:36:04.038Z,97601.97
2023-01-02T11:38:43.487Z,97561.34
2023-01-02T11:41:50.476Z,97552.75
2023-01-02T11:44:35.201Z,97523.66
2023-01-02T11:47:04.573Z,97499.75
2023-01-02T11:49:42.849Z,97499.75
2023-01-02T11:52:14.916Z,97475.22
2023-01-02T11:54:57.431Z,97476.75
2023-01-02T11:57:47.606Z,97444.81
2023-01-02T12:00:18.936Z,97450.78
2023-01-02T12:02:48.692Z,97460.34
2023-01-02T12:05:47.207Z,97463.88
2023-01-02T12:08:43.396Z,97459.00
2023-01-02T12:11:38.121Z,97473.41
2023-01-02T12:14:15.969Z,97477.25
2023-01-02T12:17:00.304Z,97476.91
2023-01-02T12:19:52.462Z,97477.81
2023-01-02T12:22:38.350Z,97499.91
2023-01-02T12:25:24.711Z,97492.88
2023-01-02T12:28:06.508Z,97512.78
2023-01-02T12:30:38.806Z,97523.53
2023-01-02T12:33:27.965Z,97522.34
2023-01-02T12:36:20.141Z,97528.63
2023-01-02T12:38:59.323Z,97532.63
2023-01-02T12:41:26.476Z,97537.06
2023-01-02T12:44:19.786Z,97523.63
2023-01-02T12:46:56.685Z,97510.41
2023-01-02T12:49:50.429Z,97507.22
2023-01-02T12:52:46.920Z,97513.19
2023-01-02T12:55:53.179Z,97489.75
2023-01-02T12:58:49.436Z,97466.59
2023-01-02T13:01:26.637Z,97446.84
2023-01-02T13:04:06.051Z,97440.75
2023-01-02T13:06:54.714Z,97411.50
2023-01-02T13:09:30.329Z,97395.91
2023-01-02T13:12:06.692Z,97370.31
2023-01-02T13:14:41.274Z,97348.59
2023-01-02T13:17:17.865Z,97333.25
2023-01-02T13:19:55.411Z,97318.81
2023-01-02T13:22:28.550Z,97288.31
2023-01-02T13:24:58.145Z,97290.53
2023-01-02T13:27:25.945Z,97301.78
2023-01-02T13:29:53.561Z,97302.88
2023-01-02T13:32:31.312Z,97271.09
2023-01-02T13:35:02.556Z,97245.09
2023-01-02T13:37:30.375Z,97240.06
2023-01-02T13:40:01.020Z,97241.31
2023-01-02T13:42:52.829Z,97227.94
2023-01-02T13:45:32.967Z,97206.56
2023-01-02T13:48:03.661Z,97186.22
2023-01-02T13:50:33.971Z,97167.28
2023-01-02T13:53:25.630Z,97155.50
2023-01-02T13:56:12.926Z,97136.84
2023-01-02T13:58:45.043Z,97133.66
2023-01-02T14:01:21.514Z,97123.16
2023-01-02T14:04:09.421Z,97131.47
2023-01-02T14:06:41.178Z,97114.31
2023-01-02T14:09:10.614Z,97117.31
2023-01-02T14:12:01.820Z,97120.53
2023-01-02T14:14:30.171Z,97114.84
2023-01-02T14:17:27.458Z,97138.59
2023-01-02T14:20:20.054Z,97163.19
2023-01-02T14:22:54.449Z,97172.06
2023-01-02T14:25:22.787Z,97174.69
2023-01-02T14:28:30.394Z,97183.56
2023-01-02T14:30:58.676Z,97170.56
2023-01-02T14:33:35.772Z,97162.69
2023-01-02T14:36:08.854Z,97174.44
2023-01-02T14:38:43.552Z,97176.56
2023-01-02T14:42:10.928Z,97184.84
2023-01-02T14:44:52.722Z,97164.81
2023-01-02T14:47:39.473Z,97151.09
2023-01-02T14:50:30.578Z,97134.25
2023-01-02T14:53:19.546Z,97142.66
2023-01-02T14:55:49.770Z,97141.44
2023-01-02T14:58:40.363Z,97145.88
2023-01-02T15:01:08.732Z,97148.47
2023-01-02T15:04:03.385Z,97142.06
2023-01-02T15:06:42.229Z,97145.69
2023-01-02T15:09:13.500Z,97149.25
2023-01-02T15:12:14.832Z,97159.16
2023-01-02T15:14:43.238Z,97172.16
2023-01-02T15:17:13.807Z,97163.13
2023-01-02T15:19:44.172Z,97161.00
2023-01-02T15:22:19.083Z,97166.50
2023-01-02T15:24:52.866Z,97163.28
2023-01-02T15:27:27.605Z,97156.72
2023-01-02T15:30:22.363Z,97154.44
2023-01-02T15:32:50.668Z,97155.34
2023-01-02T15:35:22.370Z,97164.97
2023-01-02T15:37:51.150Z,97153.97
2023-01-02T15:40:32.266Z,97152.47
2023-01-02T15:43:24.965Z,97128.31
2023-01-02T15:45:53.023Z,97125.41
2023-01-02T15:48:22.186Z,97124.66
2023-01-02T15:50:52.790Z,97111.19
2023-01-02T15:53:31.976Z,97105.59
2023-01-02T15:55:59.342Z,97116.72
2023-01-02T15:58:36.344Z,97113.38
2023-01-02T16:01:21.836Z,97101.88
2023-01-02T16:04:02.782Z,97105.59
2023-01-02T16:06:40.436Z,97114.44
2023-01-02T16:09:18.972Z,97100.69
2023-01-02T16:11:49.229Z,97106.94
2023-01-02T16:14:35.371Z,97105.25
2023-01-02T16:17:36.216Z,97115.97
2023-01-02T16:20:20.566Z,97113.50
2023-01-02T16:23:04.717Z,97130.75
2023-01-02T16:25:36.006Z,97139.00
2023-01-02T16:28:36.066Z,97115.63
2023-01-02T16:31:17.714Z,97138.25
2023-01-02T16:33:46.401Z,97144.34
2023-01-02T16:36:13.536Z,97153.69
2023-01-02T16:39:00.628Z,97176.59
2023-01-02T16:41:42.134Z,97171.38
2023-01-02T16:44:13.233Z,97168.78
2023-01-02T16:46:42.090Z,97182.66
2023-01-02T16:49:14.469Z,97186.34
2023-01-02T16:51:45.079Z,97197.63
2023-01-02T16:54:13.658Z,97194.88
2023-01-02T16:56:40.889Z,97207.56
2023-01-02T16:59:08.307Z,97218.09
2023-01-02T17:01:35.822Z,97228.59
2023-01-02T17:04:02.980Z,97226.63
2023-01-02T17:06:30.191Z,97216.84
2023-01-02T17:08:57.336Z,97229.69
2023-01-02T17:11:25.274Z,97239.94
2023-01-02T17:13:54.677Z,97247.88
2023-01-02T17:16:21.827Z,97248.91
2023-01-02T17:18:49.092Z,97244.63
2023-01-02T17:21:16.200Z,97259.75
2023-01-02T17:23:43.391Z,97276.69
2023-01-02T17:26:10.599Z,97278.69
2023-01-02T17:28:37.742Z,97278.53
2023-01-02T17:31:05.049Z,97296.81
2023-01-02T17:33:32.298Z,97293.78
2023-01-02T17:35:59.474Z,97285.03
2023-01-02T17:38:26.757Z,97303.53
2023-01-02T17:41:00.050Z,97304.19
2023-01-02T17:43:27.413Z,97308.72
2023-01-02T17:45:54.625Z,97315.66
2023-01-02T17:48:24.749Z,97319.06
2023-01-02T17:50:53.866Z,97319.91
2023-01-02T17:53:21.124Z,97326.34
2023-01-02T17:56:20.591Z,97328.19
2023-01-02T17:58:40.421Z,97334.91
2023-01-02T18:01:07.681Z,97350.28
2023-01-02T18:03:34.987Z,97361.31
2023-01-02T18:06:06.458Z,97374.56
2023-01-02T18:08:34.363Z,97394.28
2023-01-02T18:11:06.030Z,97401.00
2023-01-02T18:13:36.289Z,97404.84
2023-01-02T18:16:14.696Z,97422.84
2023-01-02T18:18:43.243Z,97432.63
2023-01-02T18:21:17.045Z,97439.34
2023-01-02T18:23:45.662Z,97437.47
2023-01-02T18:26:15.008Z,97453.53
2023-01-02T18:28:50.773Z,97464.53
2023-01-02T18:31:20.899Z,97465.13
2023-01-02T18:33:48.595Z,97477.31
2023-01-02T18:36:24.995Z,97483.47
2023-01-02T18:39:09.859Z,97503.47
2023-01-02T18:41:37.878Z,97503.47
2023-01-02T18:44:19.963Z,97502.78
2023-01-02T18:47:03.646Z,97500.75
2023-01-02T18:49:41.323Z,97507.66
2023-01-02T18:52:11.622Z,97496.94
2023-01-02T18:54:45.787Z,97486.50
2023-01-02T18:57:18.860Z,97466.03
2023-01-02T18:59:52.611Z,97492.44
2023-01-02T19:02:38.785Z,97503.13
2023-01-02T19:05:26.727Z,97511.94
2023-01-02T19:08:11.317Z,97518.00
2023-01-02T19:10:41.725Z,97511.09
2023-01-02T19:13:21.523Z,97520.31
2023-01-02T19:15:57.832Z,97525.13
2023-01-02T19:18:52.446Z,97521.97
2023-01-02T19:21:31.342Z,97520.31
2023-01-02T19:23:59.661Z,97541.84
2023-01-02T19:26:26.869Z,97537.91
2023-01-02T19:29:12.385Z,97549.03
2023-01-02T19:31:54.562Z,97558.94
2023-01-02T19:34:33.705Z,97554.81
2023-01-02T19:37:13.158Z,97565.47
2023-01-02T19:39:56.678Z,97585.34
2023-01-02T19:42:26.969Z,97604.28
2023-01-02T19:45:17.848Z,97616.47
2023-01-02T19:47:45.450Z,97621.66
2023-01-02T19:50:15.632Z,97634.41
2023-01-02T19:52:42.953Z,97638.09
2023-01-02T19:55:11.365Z,97642.41
2023-01-02T19:57:38.832Z,97629.13
2023-01-02T20:00:09.240Z,97644.03
2023-01-02T20:02:40.775Z,97664.69
2023-01-02T20:05:09.445Z,97680.06
2023-01-02T20:07:36.646Z,97678.31
2023-01-02T20:10:05.010Z,97696.09
2023-01-02T20:12:38.121Z,97714.63
2023-01-02T20:15:21.103Z,97717.78
2023-01-02T20:17:48.226Z,97712.69
2023-01-02T20:20:18.383Z,97717.53
2023-01-02T20:22:46.812Z,97711.84
2023-01-02T20:25:15.419Z,97718.66
2023-01-02T20:27:42.599Z,97720.78
2023-01-02T20:30:11.009Z,97713.84
2023-01-02T20:32:38.123Z,97717.22
2023-01-02T20:35:06.155Z,97724.81
2023-01-02T20:37:34.392Z,97744.53
2023-01-02T20:40:01.545Z,97750.75
2023-01-02T20:42:28.605Z,97750.53
2023-01-02T20:44:55.674Z,97754.56
2023-01-02T20:47:22.772Z,97758.38
2023-01-02T20:49:49.837Z,97761.19
2023-01-02T20:52:19.241Z,97765.69
2023-01-02T20:54:46.337Z,97776.75
2023-01-02T20:57:13.498Z,97776.81
2023-01-02T20:59:40.642Z,97781.72
2023-01-02T21:02:07.949Z,97786.06
2023-01-02T21:04:37.275Z,97798.53
2023-01-02T21:07:06.165Z,97818.22
2023-01-02T21:09:33.605Z,97827.78
2023-01-02T21:12:00.732Z,97820.13
2023-01-02T21:14:31.153Z,97826.84
2023-01-02T21:17:03.987Z,97833.13
2023-01-02T21:19:31.085Z,97825.72
2023-01-02T21:21:58.321Z,97821.09
2023-01-02T21:24:25.496Z,97822.03
2023-01-02T21:26:52.942Z,97820.53
2023-01-02T21:29:20.535Z,97821.81
2023-01-02T21:31:47.790Z,97821.84
2023-01-02T21:34:15.238Z,97834.81
2023-01-02T21:36:45.516Z,97833.25
2023-01-02T21:39:12.688Z,97837.66
2023-01-02T21:41:58.231Z,97838.94
2023-01-02T21:44:25.551Z,97842.59
2023-01-02T21:46:52.750Z,97850.63
2023-01-02T21:49:21.392Z,97844.47
2023-01-02T21:51:48.443Z,97842.69
2023-01-02T21:54:15.857Z,97846.34
2023-01-02T21:56:42.889Z,97840.09
2023-01-02T21:59:09.976Z,97850.28
2023-01-02T22:01:37.168Z,97858.06
2023-01-02T22:04:04.724Z,97862.16
2023-01-02T22:06:34.319Z,97859.66
2023-01-02T22:09:02.253Z,97871.56
2023-01-02T22:11:48.102Z,97878.78
2023-01-02T22:14:15.212Z,97866.88
2023-01-02T22:16:42.443Z,97873.31
2023-01-02T22:19:09.713Z,97873.16
2023-01-02T22:21:36.950Z,97881.84
2023-01-02T22:24:04.641Z,97880.41
2023-01-02T22:26:32.378Z,97876.72
2023-01-02T22:28:59.477Z,97884.50
2023-01-02T22:31:26.832Z,97880.63
2023-01-02T22:33:55.907Z,97899.53
2023-01-02T22:36:23.988Z,97907.31
2023-01-02T22:39:25.714Z,97908.63
2023-01-02T22:41:41.630Z,97916.34
2023-01-02T22:44:32.212Z,97910.44
2023-01-02T22:46:59.461Z,97919.78
2023-01-02T22:49:29.261Z,97921.53
2023-01-02T22:52:06.871Z,97919.72
2023-01-02T22:54:37.590Z,97934.28
2023-01-02T22:57:14.571Z,97937.19
2023-01-02T22:59:42.485Z,97937.41
2023-01-02T23:02:21.256Z,97953.16
2023-01-02T23:04:49.158Z,97949.53
2023-01-02T23:07:24.589Z,97956.03
2023-01-02T23:09:52.042Z,97951.84
2023-01-02T23:12:19.110Z,97944.59
2023-01-02T23:14:46.222Z,97951.41
2023-01-02T23:17:32.456Z,97957.63
2023-01-02T23:19:59.541Z,97948.88
2023-01-02T23:22:26.648Z,97950.41
2023-01-02T23:24:56.839Z,97947.56
2023-01-02T23:27:24.041Z,97949.03
2023-01-02T23:29:51.106Z,97957.94
2023-01-02T23:32:18.157Z,97956.38
2023-01-02T23:34:45.364Z,97959.22
2023-01-02T23:37:12.505Z,97959.47
2023-01-02T23:39:42.278Z,97965.13
2023-01-02T23:42:12.551Z,97978.38
2023-01-02T23:44:39.742Z,97970.63
2023-01-02T23:47:10.784Z,97978.38
2023-01-02T23:49:41.608Z,97989.03
2023-01-02T23:52:09.074Z,97988.75
2023-01-02T23:54:36.249Z,97991.34
2023-01-02T23:57:03.492Z,97990.56
2023-01-02T23:59:30.614Z,98000.91
